sensor_id;sensor_type;location;lat;lon;timestamp;P1;durP1;ratioP1;P2;durP2;ratioP2
43519;SDS011;46848;51.980;5.918;2022-08-03T00:02:20;8.70;;;2.20;;
43519;SDS011;46848;51.980;5.918;2022-08-03T00:04:46;4.50;;;1.35;;
43519;SDS011;46848;51.980;5.918;2022-08-03T00:07:12;5.65;;;1.80;;
43519;SDS011;46848;51.980;5.918;2022-08-03T00:09:37;11.27;;;1.73;;
43519;SDS011;46848;51.980;5.918;2022-08-03T00:12:03;7.57;;;1.90;;
43519;SDS011;46848;51.980;5.918;2022-08-03T00:14:29;3.85;;;1.77;;
43519;SDS011;46848;51.980;5.918;2022-08-03T00:16:55;6.57;;;1.55;;
43519;SDS011;46848;51.980;5.918;2022-08-03T00:19:21;7.68;;;2.00;;
43519;SDS011;46848;51.980;5.918;2022-08-03T00:21:48;5.72;;;1.58;;
43519;SDS011;46848;51.980;5.918;2022-08-03T00:24:14;5.13;;;1.75;;
43519;SDS011;46848;51.980;5.918;2022-08-03T00:26:40;5.60;;;2.38;;
43519;SDS011;46848;51.980;5.918;2022-08-03T00:29:05;7.10;;;3.72;;
43519;SDS011;46848;51.980;5.918;2022-08-03T00:31:31;7.75;;;3.38;;
43519;SDS011;46848;51.980;5.918;2022-08-03T00:33:57;8.45;;;3.05;;
43519;SDS011;46848;51.980;5.918;2022-08-03T00:36:22;5.82;;;2.08;;
43519;SDS011;46848;51.980;5.918;2022-08-03T00:38:48;5.18;;;1.95;;
43519;SDS011;46848;51.980;5.918;2022-08-03T00:41:14;6.10;;;1.90;;
43519;SDS011;46848;51.980;5.918;2022-08-03T00:43:39;7.35;;;2.03;;
43519;SDS011;46848;51.980;5.918;2022-08-03T00:46:05;7.47;;;2.10;;
43519;SDS011;46848;51.980;5.918;2022-08-03T00:48:31;3.85;;;1.67;;
43519;SDS011;46848;51.980;5.918;2022-08-03T00:50:56;8.02;;;2.95;;
43519;SDS011;46848;51.980;5.918;2022-08-03T00:53:22;5.88;;;1.83;;
43519;SDS011;46848;51.980;5.918;2022-08-03T00:55:48;5.03;;;1.80;;
43519;SDS011;46848;51.980;5.918;2022-08-03T00:58:14;5.80;;;1.98;;
43519;SDS011;46848;51.980;5.918;2022-08-03T01:00:40;5.95;;;1.80;;
43519;SDS011;46848;51.980;5.918;2022-08-03T01:03:06;4.15;;;1.50;;
43519;SDS011;46848;51.980;5.918;2022-08-03T01:05:39;5.63;;;1.75;;
43519;SDS011;46848;51.980;5.918;2022-08-03T01:11:14;6.53;;;1.50;;
43519;SDS011;46848;51.980;5.918;2022-08-03T01:16:55;6.47;;;1.70;;
43519;SDS011;46848;51.980;5.918;2022-08-03T01:30:55;4.28;;;1.20;;
43519;SDS011;46848;51.980;5.918;2022-08-03T01:34:27;4.72;;;1.35;;
43519;SDS011;46848;51.980;5.918;2022-08-03T01:36:26;9.10;;;2.20;;
43519;SDS011;46848;51.980;5.918;2022-08-03T01:38:57;5.65;;;1.83;;
43519;SDS011;46848;51.980;5.918;2022-08-03T01:41:28;5.78;;;2.15;;
43519;SDS011;46848;51.980;5.918;2022-08-03T01:43:57;4.78;;;1.85;;
43519;SDS011;46848;51.980;5.918;2022-08-03T01:46:25;5.63;;;1.95;;
43519;SDS011;46848;51.980;5.918;2022-08-03T01:48:52;5.90;;;2.17;;
43519;SDS011;46848;51.980;5.918;2022-08-03T01:51:20;6.50;;;1.83;;
43519;SDS011;46848;51.980;5.918;2022-08-03T01:53:47;9.07;;;2.00;;
43519;SDS011;46848;51.980;5.918;2022-08-03T01:56:15;9.73;;;2.08;;
43519;SDS011;46848;51.980;5.918;2022-08-03T01:58:43;5.82;;;2.20;;
43519;SDS011;46848;51.980;5.918;2022-08-03T02:01:10;4.15;;;1.77;;
43519;SDS011;46848;51.980;5.918;2022-08-03T02:03:38;5.97;;;2.53;;
43519;SDS011;46848;51.980;5.918;2022-08-03T02:06:08;5.85;;;2.00;;
43519;SDS011;46848;51.980;5.918;2022-08-03T02:08:36;4.88;;;2.00;;
43519;SDS011;46848;51.980;5.918;2022-08-03T02:11:07;6.75;;;3.20;;
43519;SDS011;46848;51.980;5.918;2022-08-03T02:13:33;4.30;;;2.00;;
43519;SDS011;46848;51.980;5.918;2022-08-03T02:16:02;6.22;;;2.17;;
43519;SDS011;46848;51.980;5.918;2022-08-03T02:18:29;6.25;;;1.92;;
43519;SDS011;46848;51.980;5.918;2022-08-03T02:20:58;8.77;;;1.88;;
43519;SDS011;46848;51.980;5.918;2022-08-03T02:23:25;6.65;;;2.00;;
43519;SDS011;46848;51.980;5.918;2022-08-03T02:25:52;8.75;;;1.95;;
43519;SDS011;46848;51.980;5.918;2022-08-03T02:28:23;7.25;;;2.03;;
43519;SDS011;46848;51.980;5.918;2022-08-03T02:30:56;10.73;;;4.05;;
43519;SDS011;46848;51.980;5.918;2022-08-03T02:33:30;11.73;;;3.53;;
43519;SDS011;46848;51.980;5.918;2022-08-03T02:36:00;6.00;;;3.67;;
43519;SDS011;46848;51.980;5.918;2022-08-03T02:38:27;5.80;;;3.22;;
43519;SDS011;46848;51.980;5.918;2022-08-03T02:40:57;8.23;;;2.30;;
43519;SDS011;46848;51.980;5.918;2022-08-03T02:43:24;8.52;;;2.15;;
43519;SDS011;46848;51.980;5.918;2022-08-03T02:45:51;7.28;;;2.38;;
43519;SDS011;46848;51.980;5.918;2022-08-03T02:48:26;5.43;;;1.90;;
43519;SDS011;46848;51.980;5.918;2022-08-03T02:50:55;4.30;;;2.00;;
43519;SDS011;46848;51.980;5.918;2022-08-03T02:53:23;6.93;;;1.80;;
43519;SDS011;46848;51.980;5.918;2022-08-03T02:55:50;5.07;;;1.88;;
43519;SDS011;46848;51.980;5.918;2022-08-03T02:58:18;6.65;;;2.10;;
43519;SDS011;46848;51.980;5.918;2022-08-03T03:00:47;6.43;;;1.98;;
43519;SDS011;46848;51.980;5.918;2022-08-03T03:03:18;4.72;;;1.88;;
43519;SDS011;46848;51.980;5.918;2022-08-03T03:05:46;4.88;;;1.98;;
43519;SDS011;46848;51.980;5.918;2022-08-03T03:08:14;5.70;;;1.90;;
43519;SDS011;46848;51.980;5.918;2022-08-03T03:10:42;5.38;;;1.60;;
43519;SDS011;46848;51.980;5.918;2022-08-03T03:13:09;8.93;;;1.88;;
43519;SDS011;46848;51.980;5.918;2022-08-03T03:15:35;6.50;;;1.70;;
43519;SDS011;46848;51.980;5.918;2022-08-03T03:18:04;6.22;;;1.80;;
43519;SDS011;46848;51.980;5.918;2022-08-03T03:20:31;4.88;;;1.95;;
43519;SDS011;46848;51.980;5.918;2022-08-03T03:22:59;3.95;;;1.40;;
43519;SDS011;46848;51.980;5.918;2022-08-03T03:25:27;6.78;;;2.38;;
43519;SDS011;46848;51.980;5.918;2022-08-03T03:27:55;7.07;;;2.10;;
43519;SDS011;46848;51.980;5.918;2022-08-03T03:30:22;5.25;;;1.77;;
43519;SDS011;46848;51.980;5.918;2022-08-03T03:32:48;5.25;;;1.90;;
43519;SDS011;46848;51.980;5.918;2022-08-03T03:35:13;8.02;;;2.35;;
43519;SDS011;46848;51.980;5.918;2022-08-03T03:37:40;5.30;;;2.15;;
43519;SDS011;46848;51.980;5.918;2022-08-03T03:40:06;5.55;;;2.30;;
43519;SDS011;46848;51.980;5.918;2022-08-03T03:42:33;9.13;;;2.10;;
43519;SDS011;46848;51.980;5.918;2022-08-03T03:45:02;4.78;;;2.22;;
43519;SDS011;46848;51.980;5.918;2022-08-03T03:47:28;5.68;;;2.15;;
43519;SDS011;46848;51.980;5.918;2022-08-03T03:49:55;4.93;;;2.10;;
43519;SDS011;46848;51.980;5.918;2022-08-03T03:52:22;5.60;;;1.88;;
43519;SDS011;46848;51.980;5.918;2022-08-03T03:54:47;7.20;;;2.00;;
43519;SDS011;46848;51.980;5.918;2022-08-03T03:57:13;8.18;;;2.17;;
43519;SDS011;46848;51.980;5.918;2022-08-03T03:59:39;8.65;;;2.13;;
43519;SDS011;46848;51.980;5.918;2022-08-03T04:02:06;7.53;;;1.90;;
43519;SDS011;46848;51.980;5.918;2022-08-03T04:04:33;7.93;;;2.25;;
43519;SDS011;46848;51.980;5.918;2022-08-03T04:07:18;5.57;;;1.92;;
43519;SDS011;46848;51.980;5.918;2022-08-03T04:10:04;6.40;;;2.05;;
43519;SDS011;46848;51.980;5.918;2022-08-03T04:12:55;10.77;;;2.65;;
43519;SDS011;46848;51.980;5.918;2022-08-03T04:15:24;8.55;;;2.53;;
43519;SDS011;46848;51.980;5.918;2022-08-03T04:17:52;7.65;;;2.10;;
43519;SDS011;46848;51.980;5.918;2022-08-03T04:20:21;6.57;;;2.38;;
43519;SDS011;46848;51.980;5.918;2022-08-03T04:22:50;6.93;;;2.67;;
43519;SDS011;46848;51.980;5.918;2022-08-03T04:25:18;6.82;;;2.40;;
43519;SDS011;46848;51.980;5.918;2022-08-03T04:27:47;9.18;;;2.65;;
43519;SDS011;46848;51.980;5.918;2022-08-03T04:30:16;5.88;;;2.75;;
43519;SDS011;46848;51.980;5.918;2022-08-03T04:32:43;9.52;;;2.55;;
43519;SDS011;46848;51.980;5.918;2022-08-03T04:35:15;7.65;;;3.30;;
43519;SDS011;46848;51.980;5.918;2022-08-03T04:37:43;11.13;;;3.30;;
43519;SDS011;46848;51.980;5.918;2022-08-03T04:40:25;8.45;;;3.15;;
43519;SDS011;46848;51.980;5.918;2022-08-03T04:42:54;10.10;;;3.60;;
43519;SDS011;46848;51.980;5.918;2022-08-03T04:45:21;8.80;;;3.45;;
43519;SDS011;46848;51.980;5.918;2022-08-03T04:47:48;12.93;;;4.07;;
43519;SDS011;46848;51.980;5.918;2022-08-03T04:50:14;9.38;;;4.28;;
43519;SDS011;46848;51.980;5.918;2022-08-03T04:52:41;8.70;;;3.08;;
43519;SDS011;46848;51.980;5.918;2022-08-03T04:55:07;5.75;;;3.00;;
43519;SDS011;46848;51.980;5.918;2022-08-03T04:57:33;9.75;;;4.05;;
43519;SDS011;46848;51.980;5.918;2022-08-03T04:59:58;11.27;;;3.75;;
43519;SDS011;46848;51.980;5.918;2022-08-03T05:02:24;9.75;;;4.30;;
43519;SDS011;46848;51.980;5.918;2022-08-03T05:04:50;11.82;;;4.20;;
43519;SDS011;46848;51.980;5.918;2022-08-03T05:07:16;13.98;;;4.28;;
43519;SDS011;46848;51.980;5.918;2022-08-03T05:09:42;10.05;;;4.20;;
43519;SDS011;46848;51.980;5.918;2022-08-03T05:12:09;12.57;;;4.53;;
43519;SDS011;46848;51.980;5.918;2022-08-03T05:14:35;12.13;;;4.30;;
43519;SDS011;46848;51.980;5.918;2022-08-03T05:17:03;10.23;;;3.95;;
43519;SDS011;46848;51.980;5.918;2022-08-03T05:19:32;9.68;;;3.50;;
43519;SDS011;46848;51.980;5.918;2022-08-03T05:21:58;10.25;;;3.42;;
43519;SDS011;46848;51.980;5.918;2022-08-03T05:24:24;6.47;;;2.88;;
43519;SDS011;46848;51.980;5.918;2022-08-03T05:26:50;8.85;;;3.25;;
43519;SDS011;46848;51.980;5.918;2022-08-03T05:29:15;8.65;;;3.00;;
43519;SDS011;46848;51.980;5.918;2022-08-03T05:31:41;6.88;;;3.13;;
43519;SDS011;46848;51.980;5.918;2022-08-03T05:34:07;9.85;;;3.50;;
43519;SDS011;46848;51.980;5.918;2022-08-03T05:36:32;10.50;;;3.45;;
43519;SDS011;46848;51.980;5.918;2022-08-03T05:38:58;9.75;;;3.40;;
43519;SDS011;46848;51.980;5.918;2022-08-03T05:41:23;7.28;;;2.88;;
43519;SDS011;46848;51.980;5.918;2022-08-03T05:43:53;9.68;;;3.10;;
43519;SDS011;46848;51.980;5.918;2022-08-03T05:46:19;8.65;;;3.53;;
43519;SDS011;46848;51.980;5.918;2022-08-03T05:48:48;9.27;;;4.00;;
43519;SDS011;46848;51.980;5.918;2022-08-03T05:51:14;10.02;;;3.45;;
43519;SDS011;46848;51.980;5.918;2022-08-03T05:53:40;14.70;;;4.90;;
43519;SDS011;46848;51.980;5.918;2022-08-03T05:56:06;13.35;;;3.75;;
43519;SDS011;46848;51.980;5.918;2022-08-03T05:58:32;12.48;;;4.10;;
43519;SDS011;46848;51.980;5.918;2022-08-03T06:00:58;11.43;;;4.55;;
43519;SDS011;46848;51.980;5.918;2022-08-03T06:03:23;9.07;;;3.58;;
43519;SDS011;46848;51.980;5.918;2022-08-03T06:05:49;11.75;;;3.85;;
43519;SDS011;46848;51.980;5.918;2022-08-03T06:08:15;10.40;;;4.18;;
43519;SDS011;46848;51.980;5.918;2022-08-03T06:10:40;17.92;;;4.88;;
43519;SDS011;46848;51.980;5.918;2022-08-03T06:13:06;12.57;;;4.05;;
43519;SDS011;46848;51.980;5.918;2022-08-03T06:15:31;19.48;;;3.90;;
43519;SDS011;46848;51.980;5.918;2022-08-03T06:17:59;11.57;;;3.50;;
43519;SDS011;46848;51.980;5.918;2022-08-03T06:20:24;11.07;;;4.10;;
43519;SDS011;46848;51.980;5.918;2022-08-03T06:22:50;11.15;;;2.65;;
43519;SDS011;46848;51.980;5.918;2022-08-03T06:25:16;11.73;;;4.43;;
43519;SDS011;46848;51.980;5.918;2022-08-03T06:27:43;9.63;;;3.70;;
43519;SDS011;46848;51.980;5.918;2022-08-03T06:30:09;10.27;;;3.80;;
43519;SDS011;46848;51.980;5.918;2022-08-03T06:32:36;10.13;;;3.40;;
43519;SDS011;46848;51.980;5.918;2022-08-03T06:35:03;9.90;;;3.92;;
43519;SDS011;46848;51.980;5.918;2022-08-03T06:37:49;9.02;;;3.28;;
43519;SDS011;46848;51.980;5.918;2022-08-03T06:40:16;11.65;;;3.75;;
43519;SDS011;46848;51.980;5.918;2022-08-03T06:42:43;9.15;;;3.33;;
43519;SDS011;46848;51.980;5.918;2022-08-03T06:45:09;13.40;;;3.78;;
43519;SDS011;46848;51.980;5.918;2022-08-03T06:47:36;13.40;;;3.58;;
43519;SDS011;46848;51.980;5.918;2022-08-03T06:50:03;16.17;;;4.45;;
43519;SDS011;46848;51.980;5.918;2022-08-03T06:52:30;18.13;;;5.35;;
43519;SDS011;46848;51.980;5.918;2022-08-03T06:54:56;11.88;;;3.45;;
43519;SDS011;46848;51.980;5.918;2022-08-03T06:57:21;12.95;;;3.78;;
43519;SDS011;46848;51.980;5.918;2022-08-03T06:59:47;9.45;;;2.50;;
43519;SDS011;46848;51.980;5.918;2022-08-03T07:02:13;11.32;;;2.90;;
43519;SDS011;46848;51.980;5.918;2022-08-03T07:04:39;17.10;;;4.20;;
43519;SDS011;46848;51.980;5.918;2022-08-03T07:07:04;12.70;;;3.80;;
43519;SDS011;46848;51.980;5.918;2022-08-03T07:09:30;14.75;;;3.90;;
43519;SDS011;46848;51.980;5.918;2022-08-03T07:11:56;12.05;;;3.35;;
43519;SDS011;46848;51.980;5.918;2022-08-03T07:14:22;16.15;;;4.70;;
43519;SDS011;46848;51.980;5.918;2022-08-03T07:16:48;13.20;;;3.65;;
43519;SDS011;46848;51.980;5.918;2022-08-03T07:19:14;8.85;;;3.10;;
43519;SDS011;46848;51.980;5.918;2022-08-03T07:21:39;11.00;;;2.70;;
43519;SDS011;46848;51.980;5.918;2022-08-03T07:24:05;11.23;;;2.85;;
43519;SDS011;46848;51.980;5.918;2022-08-03T07:26:31;9.95;;;3.38;;
43519;SDS011;46848;51.980;5.918;2022-08-03T07:28:57;10.10;;;2.92;;
43519;SDS011;46848;51.980;5.918;2022-08-03T07:31:22;10.68;;;2.95;;
43519;SDS011;46848;51.980;5.918;2022-08-03T07:33:48;13.55;;;2.15;;
43519;SDS011;46848;51.980;5.918;2022-08-03T07:36:14;11.30;;;3.03;;
43519;SDS011;46848;51.980;5.918;2022-08-03T07:38:40;9.25;;;2.78;;
43519;SDS011;46848;51.980;5.918;2022-08-03T07:41:05;8.52;;;2.83;;
43519;SDS011;46848;51.980;5.918;2022-08-03T07:43:31;14.77;;;3.30;;
43519;SDS011;46848;51.980;5.918;2022-08-03T07:45:57;14.18;;;3.33;;
43519;SDS011;46848;51.980;5.918;2022-08-03T07:48:22;9.90;;;2.63;;
43519;SDS011;46848;51.980;5.918;2022-08-03T07:50:48;10.57;;;2.97;;
43519;SDS011;46848;51.980;5.918;2022-08-03T07:53:14;10.05;;;2.20;;
43519;SDS011;46848;51.980;5.918;2022-08-03T07:55:40;10.35;;;2.28;;
43519;SDS011;46848;51.980;5.918;2022-08-03T07:58:09;7.38;;;2.10;;
43519;SDS011;46848;51.980;5.918;2022-08-03T08:00:39;10.30;;;2.30;;
43519;SDS011;46848;51.980;5.918;2022-08-03T08:03:05;15.63;;;2.90;;
43519;SDS011;46848;51.980;5.918;2022-08-03T08:05:31;12.63;;;2.63;;
43519;SDS011;46848;51.980;5.918;2022-08-03T08:07:57;12.20;;;2.38;;
43519;SDS011;46848;51.980;5.918;2022-08-03T08:10:24;11.77;;;2.40;;
43519;SDS011;46848;51.980;5.918;2022-08-03T08:12:50;10.40;;;2.33;;
43519;SDS011;46848;51.980;5.918;2022-08-03T08:15:16;12.25;;;3.40;;
43519;SDS011;46848;51.980;5.918;2022-08-03T08:17:51;12.50;;;2.95;;
43519;SDS011;46848;51.980;5.918;2022-08-03T08:20:23;11.27;;;2.90;;
43519;SDS011;46848;51.980;5.918;2022-08-03T08:22:51;9.70;;;2.00;;
43519;SDS011;46848;51.980;5.918;2022-08-03T08:25:19;9.80;;;2.10;;
43519;SDS011;46848;51.980;5.918;2022-08-03T08:27:45;7.65;;;2.20;;
43519;SDS011;46848;51.980;5.918;2022-08-03T08:30:13;10.05;;;2.25;;
43519;SDS011;46848;51.980;5.918;2022-08-03T08:32:40;13.07;;;3.38;;
43519;SDS011;46848;51.980;5.918;2022-08-03T08:35:07;10.98;;;2.38;;
43519;SDS011;46848;51.980;5.918;2022-08-03T08:37:33;11.57;;;2.58;;
43519;SDS011;46848;51.980;5.918;2022-08-03T08:39:59;15.38;;;2.60;;
43519;SDS011;46848;51.980;5.918;2022-08-03T08:42:25;10.05;;;2.67;;
43519;SDS011;46848;51.980;5.918;2022-08-03T08:44:51;10.82;;;2.58;;
43519;SDS011;46848;51.980;5.918;2022-08-03T08:47:22;14.90;;;2.28;;
43519;SDS011;46848;51.980;5.918;2022-08-03T08:49:51;12.25;;;3.50;;
43519;SDS011;46848;51.980;5.918;2022-08-03T08:52:20;10.70;;;2.20;;
43519;SDS011;46848;51.980;5.918;2022-08-03T08:54:49;10.25;;;2.28;;
43519;SDS011;46848;51.980;5.918;2022-08-03T08:57:21;13.18;;;3.05;;
43519;SDS011;46848;51.980;5.918;2022-08-03T08:59:50;10.93;;;2.38;;
43519;SDS011;46848;51.980;5.918;2022-08-03T09:02:17;9.43;;;2.45;;
43519;SDS011;46848;51.980;5.918;2022-08-03T09:04:43;10.80;;;2.40;;
43519;SDS011;46848;51.980;5.918;2022-08-03T09:07:09;10.63;;;2.30;;
43519;SDS011;46848;51.980;5.918;2022-08-03T09:09:35;13.60;;;2.75;;
43519;SDS011;46848;51.980;5.918;2022-08-03T09:12:01;15.38;;;3.15;;
43519;SDS011;46848;51.980;5.918;2022-08-03T09:14:26;6.82;;;2.13;;
43519;SDS011;46848;51.980;5.918;2022-08-03T09:16:57;10.30;;;1.98;;
43519;SDS011;46848;51.980;5.918;2022-08-03T09:19:27;11.88;;;2.10;;
43519;SDS011;46848;51.980;5.918;2022-08-03T09:22:16;12.25;;;2.05;;
43519;SDS011;46848;51.980;5.918;2022-08-03T09:24:56;12.73;;;2.78;;
43519;SDS011;46848;51.980;5.918;2022-08-03T09:27:27;14.68;;;2.42;;
43519;SDS011;46848;51.980;5.918;2022-08-03T09:29:53;15.02;;;3.17;;
43519;SDS011;46848;51.980;5.918;2022-08-03T09:32:23;10.95;;;3.30;;
43519;SDS011;46848;51.980;5.918;2022-08-03T09:34:50;12.63;;;2.97;;
43519;SDS011;46848;51.980;5.918;2022-08-03T09:37:17;14.85;;;2.17;;
43519;SDS011;46848;51.980;5.918;2022-08-03T09:39:45;16.10;;;3.42;;
43519;SDS011;46848;51.980;5.918;2022-08-03T09:42:12;13.23;;;2.35;;
43519;SDS011;46848;51.980;5.918;2022-08-03T09:44:43;17.10;;;3.13;;
43519;SDS011;46848;51.980;5.918;2022-08-03T09:47:11;15.43;;;2.95;;
43519;SDS011;46848;51.980;5.918;2022-08-03T09:49:38;12.68;;;3.03;;
43519;SDS011;46848;51.980;5.918;2022-08-03T09:52:12;15.82;;;3.60;;
43519;SDS011;46848;51.980;5.918;2022-08-03T09:54:39;9.90;;;2.60;;
43519;SDS011;46848;51.980;5.918;2022-08-03T09:57:05;16.75;;;3.00;;
43519;SDS011;46848;51.980;5.918;2022-08-03T09:59:31;18.10;;;3.55;;
43519;SDS011;46848;51.980;5.918;2022-08-03T10:01:57;16.27;;;3.22;;
43519;SDS011;46848;51.980;5.918;2022-08-03T10:04:24;11.50;;;1.92;;
43519;SDS011;46848;51.980;5.918;2022-08-03T10:07:00;8.85;;;2.40;;
43519;SDS011;46848;51.980;5.918;2022-08-03T10:09:26;12.32;;;2.40;;
43519;SDS011;46848;51.980;5.918;2022-08-03T10:11:52;14.52;;;2.45;;
43519;SDS011;46848;51.980;5.918;2022-08-03T10:14:18;12.05;;;2.85;;
43519;SDS011;46848;51.980;5.918;2022-08-03T10:16:45;17.27;;;3.60;;
43519;SDS011;46848;51.980;5.918;2022-08-03T10:19:11;16.27;;;3.13;;
43519;SDS011;46848;51.980;5.918;2022-08-03T10:21:39;13.57;;;3.08;;
43519;SDS011;46848;51.980;5.918;2022-08-03T10:24:19;10.00;;;2.90;;
43519;SDS011;46848;51.980;5.918;2022-08-03T10:26:52;15.13;;;2.40;;
43519;SDS011;46848;51.980;5.918;2022-08-03T10:29:28;13.07;;;3.22;;
43519;SDS011;46848;51.980;5.918;2022-08-03T10:31:58;10.25;;;2.60;;
43519;SDS011;46848;51.980;5.918;2022-08-03T10:34:30;13.73;;;2.72;;
43519;SDS011;46848;51.980;5.918;2022-08-03T10:36:59;11.63;;;2.85;;
43519;SDS011;46848;51.980;5.918;2022-08-03T10:39:28;14.90;;;2.78;;
43519;SDS011;46848;51.980;5.918;2022-08-03T10:41:54;9.60;;;1.92;;
43519;SDS011;46848;51.980;5.918;2022-08-03T10:44:23;16.20;;;2.33;;
43519;SDS011;46848;51.980;5.918;2022-08-03T10:49:20;13.07;;;2.60;;
43519;SDS011;46848;51.980;5.918;2022-08-03T10:51:47;15.10;;;2.78;;
43519;SDS011;46848;51.980;5.918;2022-08-03T10:57:51;15.10;;;2.72;;
43519;SDS011;46848;51.980;5.918;2022-08-03T11:00:22;13.70;;;2.38;;
43519;SDS011;46848;51.980;5.918;2022-08-03T11:05:43;12.98;;;2.88;;
43519;SDS011;46848;51.980;5.918;2022-08-03T11:10:45;9.13;;;1.70;;
43519;SDS011;46848;51.980;5.918;2022-08-03T11:13:16;9.15;;;2.20;;
43519;SDS011;46848;51.980;5.918;2022-08-03T11:15:44;10.20;;;2.00;;
43519;SDS011;46848;51.980;5.918;2022-08-03T11:18:12;11.40;;;2.47;;
43519;SDS011;46848;51.980;5.918;2022-08-03T11:20:55;15.15;;;3.40;;
43519;SDS011;46848;51.980;5.918;2022-08-03T11:26:26;11.43;;;2.60;;
43519;SDS011;46848;51.980;5.918;2022-08-03T11:28:52;11.05;;;2.78;;
43519;SDS011;46848;51.980;5.918;2022-08-03T11:34:05;12.63;;;2.92;;
43519;SDS011;46848;51.980;5.918;2022-08-03T11:39:38;9.93;;;2.30;;
43519;SDS011;46848;51.980;5.918;2022-08-03T11:44:52;9.82;;;2.20;;
43519;SDS011;46848;51.980;5.918;2022-08-03T11:47:23;6.65;;;1.73;;
43519;SDS011;46848;51.980;5.918;2022-08-03T11:49:53;9.05;;;2.15;;
43519;SDS011;46848;51.980;5.918;2022-08-03T11:52:21;9.20;;;1.80;;
43519;SDS011;46848;51.980;5.918;2022-08-03T11:54:50;7.95;;;1.50;;
43519;SDS011;46848;51.980;5.918;2022-08-03T11:57:30;8.70;;;1.98;;
43519;SDS011;46848;51.980;5.918;2022-08-03T11:59:57;6.53;;;1.60;;
43519;SDS011;46848;51.980;5.918;2022-08-03T12:02:23;6.95;;;2.00;;
43519;SDS011;46848;51.980;5.918;2022-08-03T12:04:52;8.15;;;1.77;;
43519;SDS011;46848;51.980;5.918;2022-08-03T12:07:22;9.00;;;2.10;;
43519;SDS011;46848;51.980;5.918;2022-08-03T12:12:35;7.38;;;1.95;;
43519;SDS011;46848;51.980;5.918;2022-08-03T12:15:01;11.35;;;2.20;;
43519;SDS011;46848;51.980;5.918;2022-08-03T12:17:32;5.82;;;1.80;;
43519;SDS011;46848;51.980;5.918;2022-08-03T12:19:58;9.60;;;1.83;;
43519;SDS011;46848;51.980;5.918;2022-08-03T12:22:37;9.43;;;2.30;;
43519;SDS011;46848;51.980;5.918;2022-08-03T12:25:07;10.27;;;2.25;;
43519;SDS011;46848;51.980;5.918;2022-08-03T12:27:33;9.65;;;2.08;;
43519;SDS011;46848;51.980;5.918;2022-08-03T12:30:00;12.63;;;2.53;;
43519;SDS011;46848;51.980;5.918;2022-08-03T12:32:27;13.70;;;2.83;;
43519;SDS011;46848;51.980;5.918;2022-08-03T12:34:53;13.10;;;2.30;;
43519;SDS011;46848;51.980;5.918;2022-08-03T12:37:23;18.92;;;2.72;;
43519;SDS011;46848;51.980;5.918;2022-08-03T12:39:50;7.15;;;2.20;;
43519;SDS011;46848;51.980;5.918;2022-08-03T12:42:16;12.13;;;2.28;;
43519;SDS011;46848;51.980;5.918;2022-08-03T12:44:42;11.38;;;2.25;;
43519;SDS011;46848;51.980;5.918;2022-08-03T12:47:09;8.95;;;2.13;;
43519;SDS011;46848;51.980;5.918;2022-08-03T12:49:45;10.40;;;2.10;;
43519;SDS011;46848;51.980;5.918;2022-08-03T12:52:12;12.25;;;2.47;;
43519;SDS011;46848;51.980;5.918;2022-08-03T12:54:38;8.27;;;1.98;;
43519;SDS011;46848;51.980;5.918;2022-08-03T12:57:12;7.38;;;1.83;;
43519;SDS011;46848;51.980;5.918;2022-08-03T12:59:42;6.00;;;1.90;;
43519;SDS011;46848;51.980;5.918;2022-08-03T13:02:22;7.47;;;1.67;;
43519;SDS011;46848;51.980;5.918;2022-08-03T13:04:49;4.72;;;1.40;;
43519;SDS011;46848;51.980;5.918;2022-08-03T13:07:16;7.40;;;1.80;;
43519;SDS011;46848;51.980;5.918;2022-08-03T13:12:12;6.70;;;1.60;;
43519;SDS011;46848;51.980;5.918;2022-08-03T13:14:42;7.55;;;1.70;;
43519;SDS011;46848;51.980;5.918;2022-08-03T13:17:09;3.95;;;1.65;;
43519;SDS011;46848;51.980;5.918;2022-08-03T13:19:35;7.85;;;1.50;;
43519;SDS011;46848;51.980;5.918;2022-08-03T13:22:11;5.85;;;1.50;;
43519;SDS011;46848;51.980;5.918;2022-08-03T13:24:41;9.95;;;1.90;;
43519;SDS011;46848;51.980;5.918;2022-08-03T13:27:08;9.05;;;1.80;;
43519;SDS011;46848;51.980;5.918;2022-08-03T13:29:34;6.60;;;1.98;;
43519;SDS011;46848;51.980;5.918;2022-08-03T13:32:03;6.53;;;1.27;;
43519;SDS011;46848;51.980;5.918;2022-08-03T13:34:30;7.63;;;1.17;;
43519;SDS011;46848;51.980;5.918;2022-08-03T13:36:55;4.82;;;1.20;;
43519;SDS011;46848;51.980;5.918;2022-08-03T13:39:21;7.38;;;1.20;;
43519;SDS011;46848;51.980;5.918;2022-08-03T13:41:47;6.00;;;1.60;;
43519;SDS011;46848;51.980;5.918;2022-08-03T13:44:13;5.72;;;1.70;;
43519;SDS011;46848;51.980;5.918;2022-08-03T13:46:39;4.72;;;1.30;;
43519;SDS011;46848;51.980;5.918;2022-08-03T13:49:05;8.70;;;1.83;;
43519;SDS011;46848;51.980;5.918;2022-08-03T13:51:32;3.65;;;1.00;;
43519;SDS011;46848;51.980;5.918;2022-08-03T13:53:58;4.40;;;1.30;;
43519;SDS011;46848;51.980;5.918;2022-08-03T13:56:24;6.43;;;1.45;;
43519;SDS011;46848;51.980;5.918;2022-08-03T13:58:53;7.60;;;1.40;;
43519;SDS011;46848;51.980;5.918;2022-08-03T14:01:20;5.85;;;1.67;;
43519;SDS011;46848;51.980;5.918;2022-08-03T14:03:46;8.05;;;1.65;;
43519;SDS011;46848;51.980;5.918;2022-08-03T14:06:14;4.18;;;1.10;;
43519;SDS011;46848;51.980;5.918;2022-08-03T14:08:39;3.42;;;1.10;;
43519;SDS011;46848;51.980;5.918;2022-08-03T14:11:05;4.70;;;1.05;;
43519;SDS011;46848;51.980;5.918;2022-08-03T14:13:31;3.67;;;1.33;;
43519;SDS011;46848;51.980;5.918;2022-08-03T14:15:57;4.93;;;1.13;;
43519;SDS011;46848;51.980;5.918;2022-08-03T14:18:23;2.47;;;1.00;;
43519;SDS011;46848;51.980;5.918;2022-08-03T14:20:48;3.78;;;1.10;;
43519;SDS011;46848;51.980;5.918;2022-08-03T14:23:14;3.70;;;1.23;;
43519;SDS011;46848;51.980;5.918;2022-08-03T14:25:41;5.05;;;1.20;;
43519;SDS011;46848;51.980;5.918;2022-08-03T14:28:06;3.72;;;1.17;;
43519;SDS011;46848;51.980;5.918;2022-08-03T14:30:33;2.40;;;1.20;;
43519;SDS011;46848;51.980;5.918;2022-08-03T14:32:59;5.13;;;1.70;;
43519;SDS011;46848;51.980;5.918;2022-08-03T14:35:24;4.80;;;0.93;;
43519;SDS011;46848;51.980;5.918;2022-08-03T14:37:50;3.38;;;0.88;;
43519;SDS011;46848;51.980;5.918;2022-08-03T14:40:16;6.35;;;1.00;;
43519;SDS011;46848;51.980;5.918;2022-08-03T14:42:42;4.72;;;1.08;;
43519;SDS011;46848;51.980;5.918;2022-08-03T14:45:08;2.88;;;0.90;;
43519;SDS011;46848;51.980;5.918;2022-08-03T14:47:34;7.60;;;1.17;;
43519;SDS011;46848;51.980;5.918;2022-08-03T14:50:00;5.97;;;1.02;;
43519;SDS011;46848;51.980;5.918;2022-08-03T14:52:29;4.90;;;1.10;;
43519;SDS011;46848;51.980;5.918;2022-08-03T14:54:55;4.30;;;1.52;;
43519;SDS011;46848;51.980;5.918;2022-08-03T14:57:21;5.03;;;1.50;;
43519;SDS011;46848;51.980;5.918;2022-08-03T14:59:46;2.47;;;0.88;;
43519;SDS011;46848;51.980;5.918;2022-08-03T15:02:12;8.32;;;1.45;;
43519;SDS011;46848;51.980;5.918;2022-08-03T15:04:38;3.65;;;1.13;;
43519;SDS011;46848;51.980;5.918;2022-08-03T15:07:03;3.63;;;1.00;;
43519;SDS011;46848;51.980;5.918;2022-08-03T15:09:29;5.07;;;1.30;;
43519;SDS011;46848;51.980;5.918;2022-08-03T15:11:55;5.07;;;1.40;;
43519;SDS011;46848;51.980;5.918;2022-08-03T15:14:21;3.35;;;1.10;;
43519;SDS011;46848;51.980;5.918;2022-08-03T15:16:46;4.35;;;0.82;;
43519;SDS011;46848;51.980;5.918;2022-08-03T15:19:12;2.80;;;1.02;;
43519;SDS011;46848;51.980;5.918;2022-08-03T15:21:38;3.55;;;1.10;;
43519;SDS011;46848;51.980;5.918;2022-08-03T15:24:03;5.82;;;1.00;;
43519;SDS011;46848;51.980;5.918;2022-08-03T15:26:29;4.65;;;0.95;;
43519;SDS011;46848;51.980;5.918;2022-08-03T15:28:55;2.30;;;0.73;;
43519;SDS011;46848;51.980;5.918;2022-08-03T15:31:22;2.40;;;0.90;;
43519;SDS011;46848;51.980;5.918;2022-08-03T15:33:48;2.78;;;0.90;;